createdAt,value
2022-12-31T00:00:50.111Z,3.17
2022-12-31T00:03:28.519Z,3.15
2022-12-31T00:05:56.304Z,3.16
2022-12-31T00:08:24.047Z,3.15
2022-12-31T00:10:51.968Z,3.16
2022-12-31T00:13:19.687Z,3.18
2022-12-31T00:15:47.403Z,3.21
2022-12-31T00:18:15.015Z,3.21
2022-12-31T00:20:42.833Z,3.24
2022-12-31T00:23:11.236Z,3.24
2022-12-31T00:25:39.297Z,3.26
2022-12-31T00:28:07.079Z,3.28
2022-12-31T00:30:34.799Z,3.29
2022-12-31T00:33:02.605Z,3.31
2022-12-31T00:35:30.982Z,3.33
2022-12-31T00:37:58.735Z,3.34
2022-12-31T00:40:28.547Z,3.37
2022-12-31T00:42:56.309Z,3.38
2022-12-31T00:45:23.977Z,3.44
2022-12-31T00:47:51.679Z,3.50
2022-12-31T00:50:19.397Z,3.58
2022-12-31T00:52:47.162Z,3.64
2022-12-31T00:55:14.802Z,3.67
2022-12-31T00:57:42.544Z,3.69
2022-12-31T07:00:15.113Z,7.03
2022-12-31T07:03:15.405Z,7.08
2022-12-31T07:05:51.721Z,7.13
2022-12-31T07:08:29.628Z,7.14
2022-12-31T07:11:07.418Z,7.15
2022-12-31T07:13:52.399Z,7.14
2022-12-31T07:16:37.567Z,7.14
2022-12-31T07:19:14.653Z,7.14
2022-12-31T07:21:43.741Z,7.14
2022-12-31T07:24:12.680Z,7.14
2022-12-31T07:27:00.241Z,7.15
2022-12-31T07:29:43.064Z,7.17
2022-12-31T07:32:32.399Z,7.18
2022-12-31T07:35:09.573Z,7.21
2022-12-31T07:38:00.751Z,7.23
2022-12-31T07:40:34.587Z,7.26
2022-12-31T07:43:30.162Z,7.29
2022-12-31T07:46:19.656Z,7.35
2022-12-31T07:48:47.799Z,7.41
2022-12-31T07:51:16.117Z,7.46
2022-12-31T07:53:43.783Z,7.53
2022-12-31T07:56:11.604Z,7.57
2022-12-31T07:58:48.375Z,7.64
2022-12-31T08:01:20.285Z,7.67
2022-12-31T08:04:01.084Z,7.73
2022-12-31T08:06:53.128Z,7.76
2022-12-31T08:09:39.551Z,7.79
2022-12-31T08:12:08.208Z,7.82
2022-12-31T08:14:48.077Z,7.85
2022-12-31T08:17:20.507Z,7.90
2022-12-31T08:19:48.784Z,7.95
2022-12-31T08:22:19.576Z,7.98
2022-12-31T08:25:13.355Z,8.03
2022-12-31T08:28:16.490Z,8.04
2022-12-31T08:31:09.766Z,8.09
2022-12-31T08:33:53.717Z,8.12
2022-12-31T08:36:41.857Z,8.17
2022-12-31T08:39:43.404Z,8.23
2022-12-31T08:42:30.497Z,8.30
2022-12-31T08:45:00.884Z,8.38
2022-12-31T08:47:44.359Z,8.45
2022-12-31T08:50:17.903Z,8.51
2022-12-31T08:52:46.669Z,8.56
2022-12-31T08:55:16.611Z,8.62
2022-12-31T08:57:50.633Z,8.68
2022-12-31T09:00:20.167Z,8.77
2022-12-31T09:03:00.185Z,8.83
2022-12-31T09:05:46.349Z,8.87
2022-12-31T09:08:22.160Z,8.92
2022-12-31T09:10:52.690Z,8.97
2022-12-31T09:13:43.665Z,8.97
2022-12-31T09:17:00.419Z,8.98
2022-12-31T09:19:28.182Z,8.99
2022-12-31T09:21:56.645Z,9.01
2022-12-31T09:24:24.837Z,9.04
2022-12-31T09:27:08.276Z,9.07
2022-12-31T09:29:48.233Z,9.09
2022-12-31T09:32:36.922Z,9.12
2022-12-31T09:35:26.541Z,9.13
2022-12-31T09:38:14.109Z,9.17
2022-12-31T09:40:57.415Z,9.22
2022-12-31T09:43:47.023Z,9.27
2022-12-31T09:46:23.767Z,9.29
2022-12-31T09:49:22.067Z,9.35
2022-12-31T09:52:14.403Z,9.38
2022-12-31T09:55:12.971Z,9.43
2022-12-31T09:58:02.774Z,9.52
2022-12-31T10:00:44.359Z,9.59
2022-12-31T10:03:49.164Z,9.66
2022-12-31T10:06:21.156Z,9.73
2022-12-31T10:08:58.313Z,9.77
2022-12-31T10:11:41.023Z,9.78
2022-12-31T10:14:43.702Z,9.79
2022-12-31T10:17:42.070Z,9.84
2022-12-31T10:20:33.031Z,9.89
2022-12-31T10:23:19.382Z,9.95
2022-12-31T10:26:03.132Z,10.01
2022-12-31T10:28:59.773Z,10.07
2022-12-31T10:31:30.142Z,10.17
2022-12-31T10:34:26.825Z,10.27
2022-12-31T10:37:02.382Z,10.38
2022-12-31T10:39:46.092Z,10.44
2022-12-31T10:42:28.860Z,10.53
2022-12-31T10:45:26.675Z,10.58
2022-12-31T10:48:13.233Z,10.65
2022-12-31T10:51:19.295Z,10.70
2022-12-31T10:54:05.083Z,10.73
2022-12-31T10:56:44.621Z,10.76
2022-12-31T10:59:27.409Z,10.82
2022-12-31T11:02:07.494Z,10.82
2022-12-31T11:04:53.344Z,10.88
2022-12-31T11:07:58.420Z,10.92
2022-12-31T11:10:53.689Z,10.98
2022-12-31T11:13:42.249Z,11.03
2022-12-31T11:16:53.611Z,11.06
2022-12-31T11:19:34.426Z,11.06
2022-12-31T11:22:05.023Z,11.07
2022-12-31T11:24:53.968Z,11.09
2022-12-31T11:27:33.546Z,11.12
2022-12-31T11:30:21.563Z,11.16
2022-12-31T11:33:20.103Z,11.27
2022-12-31T11:36:06.331Z,11.32
2022-12-31T11:38:46.187Z,11.40
2022-12-31T11:41:26.043Z,11.47
2022-12-31T11:44:07.373Z,11.49
2022-12-31T11:46:59.145Z,11.57
2022-12-31T11:49:58.963Z,11.62
2022-12-31T11:52:55.002Z,11.61
2022-12-31T11:55:35.125Z,11.57
2022-12-31T11:58:16.629Z,11.54
2022-12-31T12:00:55.952Z,11.53
2022-12-31T12:03:24.732Z,11.52
2022-12-31T12:05:52.763Z,11.54
2022-12-31T12:08:22.431Z,11.51
2022-12-31T12:11:05.425Z,11.47
2022-12-31T12:13:35.202Z,11.47
2022-12-31T12:16:08.172Z,11.47
2022-12-31T12:18:46.936Z,11.41
2022-12-31T12:21:18.520Z,11.33
2022-12-31T12:24:00.217Z,11.32
2022-12-31T12:26:41.612Z,11.32
2022-12-31T12:29:18.866Z,11.32
2022-12-31T12:32:06.349Z,11.30
2022-12-31T12:34:37.564Z,11.30
2022-12-31T12:37:08.368Z,11.30
2022-12-31T12:39:36.844Z,11.31
2022-12-31T12:42:13.089Z,11.27
2022-12-31T12:44:42.101Z,11.25
2022-12-31T12:47:16.019Z,11.24
2022-12-31T12:49:49.075Z,11.26
2022-12-31T12:52:59.219Z,11.25
2022-12-31T12:55:41.410Z,11.19
2022-12-31T12:58:44.343Z,11.22
2022-12-31T13:01:47.513Z,11.29
2022-12-31T13:04:36.816Z,11.32
2022-12-31T13:07:13.392Z,11.30
2022-12-31T13:09:48.301Z,11.28
2022-12-31T13:13:05.218Z,11.27
2022-12-31T13:15:29.610Z,11.26
2022-12-31T13:18:11.089Z,11.23
2022-12-31T13:20:52.864Z,11.24
2022-12-31T13:23:39.644Z,11.26
2022-12-31T13:26:16.376Z,11.26
2022-12-31T13:28:47.095Z,11.28
2022-12-31T13:31:24.004Z,11.32
2022-12-31T13:34:00.239Z,11.35
2022-12-31T13:36:32.816Z,11.38
2022-12-31T13:39:07.845Z,11.41
2022-12-31T13:41:52.607Z,11.43
2022-12-31T13:44:41.910Z,11.43
2022-12-31T13:47:20.697Z,11.43
2022-12-31T13:50:22.524Z,11.46
2022-12-31T13:53:03.222Z,11.48
2022-12-31T13:55:41.606Z,11.50
2022-12-31T13:58:22.232Z,11.49
2022-12-31T14:01:09.594Z,11.52
2022-12-31T14:04:20.193Z,11.54
2022-12-31T14:07:18.170Z,11.57
2022-12-31T14:09:46.854Z,11.59
2022-12-31T14:12:54.915Z,11.62
2022-12-31T14:15:31.188Z,11.62
2022-12-31T14:18:17.867Z,11.62
2022-12-31T14:20:47.676Z,11.63
2022-12-31T14:23:31.325Z,11.64
2022-12-31T14:26:03.554Z,11.66
2022-12-31T14:29:01.633Z,11.69
2022-12-31T14:32:13.305Z,11.70
2022-12-31T14:35:19.055Z,11.73
2022-12-31T14:38:12.105Z,11.71
2022-12-31T14:41:13.119Z,11.72
2022-12-31T14:43:58.946Z,11.72
2022-12-31T14:46:35.512Z,11.75
2022-12-31T14:49:14.781Z,11.75
2022-12-31T14:51:42.487Z,11.75
2022-12-31T14:54:29.113Z,11.75
2022-12-31T14:56:57.119Z,11.74
2022-12-31T14:59:38.797Z,11.76
2022-12-31T15:02:34.610Z,11.79
2022-12-31T15:05:17.901Z,11.78
2022-12-31T15:07:48.710Z,11.77
2022-12-31T15:10:26.548Z,11.79
2022-12-31T15:13:07.784Z,11.77
2022-12-31T15:15:58.798Z,11.79
2022-12-31T15:18:42.683Z,11.84
2022-12-31T15:21:46.874Z,11.87
2022-12-31T15:24:31.407Z,11.89
2022-12-31T15:27:03.093Z,11.90
2022-12-31T15:29:36.402Z,11.92
2022-12-31T15:32:07.745Z,11.90
2022-12-31T15:34:36.779Z,11.95
2022-12-31T15:37:26.009Z,12.00
2022-12-31T15:40:25.285Z,12.01
2022-12-31T15:42:58.611Z,12.03
2022-12-31T15:45:33.228Z,12.06
2022-12-31T15:48:05.570Z,12.09
2022-12-31T15:50:39.175Z,12.12
2022-12-31T15:53:07.757Z,12.16
2022-12-31T15:55:46.446Z,12.18
2022-12-31T15:58:17.946Z,12.20
2022-12-31T16:01:15.024Z,12.22
2022-12-31T16:03:47.855Z,12.24
2022-12-31T16:06:16.691Z,12.25
2022-12-31T16:08:46.794Z,12.26
2022-12-31T16:11:15.607Z,12.26
2022-12-31T16:13:47.098Z,12.27
2022-12-31T16:16:26.522Z,12.27
2022-12-31T16:18:55.352Z,12.23
2022-12-31T16:21:32.744Z,12.20
2022-12-31T16:24:06.853Z,12.17
2022-12-31T16:26:43.420Z,12.17
2022-12-31T16:29:16.715Z,12.15
2022-12-31T16:31:46.000Z,12.12
2022-12-31T16:34:25.650Z,12.11
2022-12-31T16:37:00.802Z,12.10
2022-12-31T16:39:32.692Z,12.10
2022-12-31T16:42:20.033Z,12.14
2022-12-31T16:44:49.150Z,12.18
2022-12-31T16:47:19.485Z,12.20
2022-12-31T16:50:10.233Z,12.21
2022-12-31T16:52:43.657Z,12.25
2022-12-31T16:55:18.834Z,12.28
2022-12-31T16:57:54.164Z,12.30
2022-12-31T17:00:25.103Z,12.35
2022-12-31T17:02:59.129Z,12.36
2022-12-31T17:05:28.423Z,12.37
2022-12-31T17:07:56.392Z,12.34
2022-12-31T17:10:26.462Z,12.32
2022-12-31T17:13:27.096Z,12.34
2022-12-31T17:15:48.370Z,12.33
2022-12-31T17:18:22.276Z,12.35
2022-12-31T17:20:55.270Z,12.35
2022-12-31T17:23:31.714Z,12.34
2022-12-31T17:26:04.765Z,12.35
2022-12-31T17:28:41.661Z,12.33
2022-12-31T17:31:28.328Z,12.32
2022-12-31T17:34:14.464Z,12.32
2022-12-31T17:36:54.725Z,12.30
2022-12-31T17:39:24.328Z,12.29
2022-12-31T17:41:56.190Z,12.31
2022-12-31T17:44:28.651Z,12.31
2022-12-31T17:46:56.392Z,12.30
2022-12-31T17:49:28.777Z,12.29
2022-12-31T17:51:56.584Z,12.29
2022-12-31T17:54:24.628Z,12.31
2022-12-31T17:56:53.632Z,12.30
2022-12-31T17:59:24.200Z,12.38
2022-12-31T18:01:53.410Z,12.44
2022-12-31T18:04:21.701Z,12.48
2022-12-31T18:06:49.360Z,12.52
2022-12-31T18:09:18.118Z,12.60
2022-12-31T18:11:46.494Z,12.67
2022-12-31T18:14:15.551Z,12.75
2022-12-31T18:16:43.544Z,12.83
2022-12-31T18:19:37.715Z,12.89
2022-12-31T18:22:03.539Z,12.93
2022-12-31T18:24:31.304Z,12.97
2022-12-31T18:26:59.245Z,12.98
2022-12-31T18:29:26.935Z,12.98
2022-12-31T18:31:54.852Z,13.00
2022-12-31T18:34:22.634Z,13.00
2022-12-31T18:36:50.522Z,13.01
2022-12-31T18:39:18.251Z,13.01
2022-12-31T18:41:51.663Z,13.03
2022-12-31T18:44:19.531Z,13.05
2022-12-31T18:46:47.388Z,13.07
2022-12-31T18:49:15.121Z,13.07
2022-12-31T18:51:42.779Z,13.09
2022-12-31T18:54:12.337Z,13.10
2022-12-31T18:56:46.552Z,13.09
2022-12-31T18:59:15.063Z,13.10
2022-12-31T19:01:43.085Z,13.06
2022-12-31T19:04:26.512Z,13.02
2022-12-31T19:06:56.078Z,12.98
2022-12-31T19:09:44.648Z,12.94
2022-12-31T19:12:14.155Z,12.94
2022-12-31T19:14:42.145Z,12.92
2022-12-31T19:19:36.474Z,12.92
2022-12-31T19:22:04.230Z,12.88
2022-12-31T19:24:32.035Z,12.82
2022-12-31T19:27:01.524Z,12.76
2022-12-31T19:29:30.216Z,12.73
2022-12-31T19:32:00.669Z,12.71
2022-12-31T19:34:28.378Z,12.68
2022-12-31T19:36:56.205Z,12.66
2022-12-31T19:39:23.974Z,12.61
2022-12-31T19:41:58.887Z,12.60
2022-12-31T19:44:27.356Z,12.57
2022-12-31T19:46:55.265Z,12.57
2022-12-31T19:49:23.522Z,12.52
2022-12-31T19:51:51.169Z,12.50
2022-12-31T19:54:18.956Z,12.47
2022-12-31T19:56:46.594Z,12.47
2022-12-31T19:59:14.699Z,12.43
2022-12-31T20:01:42.464Z,12.41
2022-12-31T20:04:10.383Z,12.40
2022-12-31T20:06:38.189Z,12.38
2022-12-31T20:09:05.903Z,12.36
2022-12-31T20:11:33.635Z,12.33
2022-12-31T20:14:01.337Z,12.30
2022-12-31T20:16:33.799Z,12.29
2022-12-31T20:19:02.175Z,12.30
2022-12-31T20:21:29.878Z,12.27
2022-12-31T20:23:57.845Z,12.26
2022-12-31T20:26:26.536Z,12.25
2022-12-31T20:28:54.709Z,12.27
2022-12-31T20:31:25.293Z,12.28
2022-12-31T20:33:54.377Z,12.28
2022-12-31T20:36:23.278Z,12.28
2022-12-31T20:38:51.179Z,12.28
2022-12-31T20:41:21.816Z,12.28
2022-12-31T20:43:50.268Z,12.29
2022-12-31T20:46:21.646Z,12.30
2022-12-31T20:48:51.648Z,12.28
2022-12-31T20:51:20.379Z,12.27
2022-12-31T20:54:10.136Z,12.25
2022-12-31T20:56:39.865Z,12.23
2022-12-31T20:59:09.190Z,12.23
2022-12-31T21:02:11.608Z,12.27
2022-12-31T21:04:25.981Z,12.28
2022-12-31T21:06:53.819Z,12.30
2022-12-31T21:09:21.556Z,12.30
2022-12-31T21:12:08.120Z,12.31
2022-12-31T21:14:39.875Z,12.29
2022-12-31T21:17:10.660Z,12.28
2022-12-31T21:19:38.467Z,12.32
2022-12-31T21:22:06.197Z,12.32
2022-12-31T21:24:33.962Z,12.30
2022-12-31T21:27:01.733Z,12.27
2022-12-31T21:29:34.383Z,12.28
2022-12-31T21:32:03.583Z,12.27
2022-12-31T21:34:31.372Z,12.26
2022-12-31T21:36:59.068Z,12.24
2022-12-31T21:39:26.747Z,12.21
2022-12-31T21:41:54.503Z,12.19
2022-12-31T21:44:26.152Z,12.19
2022-12-31T21:47:38.623Z,12.19
2022-12-31T21:50:08.116Z,12.17
2022-12-31T21:52:35.930Z,12.15
2022-12-31T21:55:23.497Z,12.14
2022-12-31T21:58:24.654Z,12.20
2022-12-31T22:00:58.917Z,12.21
2022-12-31T22:03:28.229Z,12.22
2022-12-31T22:06:14.571Z,12.24
2022-12-31T22:08:44.698Z,12.26
2022-12-31T22:11:13.496Z,12.27
2022-12-31T22:13:42.762Z,12.25
2022-12-31T22:16:13.282Z,12.27
2022-12-31T22:18:44.102Z,12.29
2022-12-31T22:21:19.757Z,12.32
2022-12-31T22:23:50.148Z,12.32
2022-12-31T22:26:20.152Z,12.34
2022-12-31T22:28:48.476Z,12.35
2022-12-31T22:31:19.019Z,12.35
2022-12-31T22:33:47.477Z,12.39
2022-12-31T22:36:18.040Z,12.45
2022-12-31T22:38:46.228Z,12.45
2022-12-31T22:41:19.897Z,12.47
2022-12-31T22:43:57.208Z,12.49
2022-12-31T22:46:30.485Z,12.50
2022-12-31T22:49:00.167Z,12.52
2022-12-31T22:51:54.782Z,12.53
2022-12-31T22:54:16.985Z,12.50
2022-12-31T22:56:44.672Z,12.49
2022-12-31T22:59:12.353Z,12.49
2022-12-31T23:01:40.787Z,12.48
2022-12-31T23:04:08.683Z,12.49
2022-12-31T23:06:47.452Z,12.52
2022-12-31T23:09:35.823Z,12.53
2022-12-31T23:12:05.837Z,12.56
2022-12-31T23:14:52.901Z,12.57
2022-12-31T23:17:42.358Z,12.53
2022-12-31T23:20:35.731Z,12.50
2022-12-31T23:23:10.523Z,12.49
2022-12-31T23:25:50.532Z,12.49
2022-12-31T23:28:21.764Z,12.48
2022-12-31T23:30:51.641Z,12.48
2022-12-31T23:33:22.828Z,12.48
2022-12-31T23:35:50.513Z,12.48
2022-12-31T23:38:18.982Z,12.47
2022-12-31T23:40:46.852Z,12.47
2022-12-31T23:43:21.161Z,12.46
2022-12-31T23:45:51.216Z,12.45
2022-12-31T23:48:18.949Z,12.46
2022-12-31T23:50:53.525Z,12.46
2022-12-31T23:53:24.955Z,12.46
2022-12-31T23:55:54.139Z,12.50
2022-12-31T23:58:22.538Z,12.49
